Millboro, Virginia
Current Conditions -  °F | °C
As of 12:35 PM on Friday 31 Oct 2014 (Local Time) from KHSP Reporting Station
Overcast Overcast  
Wind Chill: 35°   Ceiling: 2200
Heat Index: 39°   Visibility: 10mi
Dew Point: 32°   Wind: 5mph
Humidity: 76%   Direction: 160°SSE
Pressure: 29.85"   Gusts: NA
Location:  37.98°N, 79.6°W
Report Text: KHSP 311635Z AUTO 16004KT 10SM OVC022 04/00 A2985 RMK AO2 T00381001
Loading
Personal Weather Stations






























Interactive Weather Map
Tropical Storm Tracking
New forecast layout! Learn more

10-Day Weather Forecast

Advertisements
Track Severe Weather on mobile